createdAt,value
2023-04-06T00:03:36.259Z,76568.22
2023-04-06T00:13:38.882Z,76572.28
2023-04-06T00:23:41.506Z,76582.38
2023-04-06T00:33:43.632Z,76576.31
2023-04-06T00:43:48.048Z,76564.19
2023-04-06T00:53:50.953Z,76558.09
2023-04-06T01:03:53.903Z,76568.22
2023-04-06T01:13:59.379Z,76568.22
2023-04-06T01:24:16.720Z,76558.09
2023-04-06T01:34:40.571Z,76539.88
2023-04-06T01:44:45.255Z,76523.69
2023-04-06T01:54:52.318Z,76521.66
2023-04-06T02:05:20.726Z,76519.63
2023-04-06T02:15:26.475Z,76505.47
2023-04-06T02:25:30.649Z,76511.53
2023-04-06T02:35:33.353Z,76499.41
2023-04-06T02:45:38.275Z,76499.41
2023-04-06T02:55:45.340Z,76491.31
2023-04-06T03:05:50.322Z,76515.59
2023-04-06T03:15:58.945Z,76531.78
2023-04-06T03:26:04.169Z,76552.03
2023-04-06T03:36:09.139Z,76560.13
2023-04-06T03:46:18.500Z,76560.13
2023-04-06T03:56:21.561Z,76580.38
2023-04-06T04:06:26.542Z,76568.22
2023-04-06T04:16:28.864Z,76566.19
2023-04-06T04:26:32.757Z,76566.19
2023-04-06T04:36:35.114Z,76574.28
2023-04-06T04:46:46.198Z,76552.03
2023-04-06T04:56:53.528Z,76547.97
2023-04-06T05:07:19.977Z,76531.78
2023-04-06T05:17:23.010Z,76552.03
2023-04-06T05:27:26.538Z,76545.97
2023-04-06T05:37:30.064Z,76515.59
2023-04-06T05:47:33.803Z,76465.00
2023-04-06T05:57:47.448Z,76410.34
2023-04-06T06:07:57.392Z,76406.28
2023-04-06T06:18:03.312Z,76367.81
2023-04-06T06:28:10.508Z,76331.41
2023-04-06T06:38:14.095Z,76337.47
2023-04-06T06:48:17.581Z,76288.88
2023-04-06T06:58:24.654Z,76262.56
2023-04-06T07:08:27.434Z,76317.22
2023-04-06T07:18:34.118Z,76294.97
2023-04-06T07:28:37.969Z,76276.75
2023-04-06T07:38:47.304Z,76282.81
2023-04-06T07:48:51.236Z,76292.94
2023-04-06T07:58:56.789Z,76280.78
2023-04-06T08:09:03.894Z,76280.78
2023-04-06T08:19:10.553Z,76305.09
2023-04-06T08:29:12.821Z,76309.13
2023-04-06T08:39:17.964Z,76260.56
2023-04-06T08:49:22.959Z,76313.19
2023-04-06T08:59:26.767Z,76303.06
2023-04-06T09:09:33.802Z,76290.91
2023-04-06T09:19:48.253Z,76282.81
2023-04-06T09:30:04.044Z,76284.84
2023-04-06T09:40:08.626Z,76296.97
2023-04-06T09:50:15.174Z,76299.00
2023-04-06T10:00:20.493Z,76278.78
2023-04-06T10:10:32.765Z,76260.56
2023-04-06T10:20:57.423Z,76260.56
2023-04-06T10:31:01.318Z,76282.81
2023-04-06T10:41:07.774Z,76299.00
2023-04-06T10:51:18.085Z,76315.19
2023-04-06T11:01:26.045Z,76311.16
2023-04-06T11:11:30.459Z,76325.31
2023-04-06T11:21:40.869Z,76311.16
2023-04-06T11:31:53.981Z,76272.69
2023-04-06T11:41:59.392Z,76250.44
2023-04-06T11:52:18.607Z,76236.25
2023-04-06T12:02:22.403Z,76195.78
2023-04-06T12:12:24.621Z,76183.63
2023-04-06T12:22:32.337Z,76151.25
2023-04-06T12:32:39.545Z,76118.88
2023-04-06T12:42:42.913Z,76131.00
2023-04-06T12:52:50.009Z,76151.25
2023-04-06T13:02:55.262Z,76155.31
2023-04-06T13:12:58.481Z,76153.28
2023-04-06T13:23:05.633Z,76135.06
2023-04-06T13:33:08.040Z,76143.16
2023-04-06T13:43:13.003Z,76145.19
2023-04-06T13:53:20.140Z,76133.03
2023-04-06T14:03:23.811Z,76133.03
2023-04-06T14:13:31.792Z,76126.97
2023-04-06T14:23:38.168Z,76114.81
2023-04-06T14:33:44.388Z,76135.06
2023-04-06T14:43:48.892Z,76131.00
2023-04-06T14:53:51.289Z,76110.78
2023-04-06T15:03:53.560Z,76092.56
2023-04-06T15:13:58.150Z,76088.50
2023-04-06T15:24:03.149Z,76094.59
2023-04-06T15:34:09.496Z,76110.78
2023-04-06T15:44:17.647Z,76106.72
2023-04-06T15:54:25.613Z,76090.53
2023-04-06T16:04:28.491Z,76102.69
2023-04-06T16:14:32.877Z,76098.63
2023-04-06T16:24:37.607Z,76116.84
2023-04-06T16:34:40.099Z,76114.81
2023-04-06T16:44:44.519Z,76106.72
2023-04-06T16:54:47.010Z,76098.63
2023-04-06T17:04:50.750Z,76096.59
2023-04-06T17:14:53.392Z,76098.63
2023-04-06T17:24:56.309Z,76102.69
2023-04-06T17:35:01.299Z,76094.59
2023-04-06T17:45:08.641Z,76102.69
2023-04-06T17:55:13.165Z,76102.69
2023-04-06T18:05:16.646Z,76100.66
2023-04-06T18:15:18.876Z,76090.53
2023-04-06T18:25:25.890Z,76090.53
2023-04-06T18:35:28.184Z,76080.41
2023-04-06T18:45:35.561Z,76070.28
2023-04-06T18:55:40.620Z,76064.22
2023-04-06T19:05:47.698Z,76082.44
2023-04-06T19:15:57.949Z,76062.19
2023-04-06T19:26:01.199Z,76046.00
2023-04-06T19:36:07.297Z,76041.97
2023-04-06T19:46:11.920Z,76052.06
2023-04-06T19:56:24.553Z,76037.91
2023-04-06T20:06:26.948Z,76046.00
2023-04-06T20:16:29.279Z,76041.97
2023-04-06T20:26:31.537Z,76033.88
2023-04-06T20:36:37.207Z,76029.81
2023-04-06T20:46:46.072Z,76029.81
2023-04-06T20:57:02.897Z,76011.59
2023-04-06T21:07:08.823Z,76005.53
2023-04-06T21:17:12.358Z,76015.66
2023-04-06T21:27:19.386Z,75997.44
2023-04-06T21:37:27.483Z,75967.06
2023-04-06T21:47:35.169Z,75965.03
2023-04-06T21:57:39.988Z,75946.84
2023-04-06T22:07:44.415Z,75936.72
2023-04-06T22:17:46.856Z,75916.47
2023-04-06T22:27:56.672Z,75920.53
2023-04-06T22:38:03.434Z,75924.56
2023-04-06T22:48:08.321Z,75888.13
2023-04-06T22:58:11.662Z,75871.94
2023-04-06T23:08:16.811Z,75867.91
2023-04-06T23:18:21.842Z,75853.72
2023-04-06T23:28:24.046Z,75835.53
2023-04-06T23:38:27.271Z,75821.34
2023-04-06T23:48:36.808Z,75791.00
2023-04-06T23:58:41.972Z,75782.91
